sensor_id;sensor_type;location;lat;lon;timestamp;P1;durP1;ratioP1;P2;durP2;ratioP2
42726;SDS011;28372;56.832;60.658;2024-02-15T00:01:13;4.20;;;2.00;;
42726;SDS011;28372;56.832;60.658;2024-02-15T00:03:41;5.20;;;2.15;;
42726;SDS011;28372;56.832;60.658;2024-02-15T00:06:09;5.18;;;2.22;;
42726;SDS011;28372;56.832;60.658;2024-02-15T00:08:38;5.55;;;2.17;;
42726;SDS011;28372;56.832;60.658;2024-02-15T00:11:05;4.20;;;2.05;;
42726;SDS011;28372;56.832;60.658;2024-02-15T00:13:36;5.40;;;2.17;;
42726;SDS011;28372;56.832;60.658;2024-02-15T00:16:04;4.85;;;1.85;;
42726;SDS011;28372;56.832;60.658;2024-02-15T00:18:32;5.15;;;2.03;;
42726;SDS011;28372;56.832;60.658;2024-02-15T00:20:59;4.40;;;1.80;;
42726;SDS011;28372;56.832;60.658;2024-02-15T00:23:29;4.38;;;1.58;;
42726;SDS011;28372;56.832;60.658;2024-02-15T00:25:58;3.05;;;1.77;;
42726;SDS011;28372;56.832;60.658;2024-02-15T00:28:26;3.95;;;1.75;;
42726;SDS011;28372;56.832;60.658;2024-02-15T00:30:54;5.15;;;2.13;;
42726;SDS011;28372;56.832;60.658;2024-02-15T00:33:22;3.42;;;1.50;;
42726;SDS011;28372;56.832;60.658;2024-02-15T00:35:50;4.75;;;1.70;;
42726;SDS011;28372;56.832;60.658;2024-02-15T00:38:20;3.83;;;2.00;;
42726;SDS011;28372;56.832;60.658;2024-02-15T00:40:48;5.25;;;1.70;;
42726;SDS011;28372;56.832;60.658;2024-02-15T00:43:16;4.82;;;1.75;;
42726;SDS011;28372;56.832;60.658;2024-02-15T00:45:46;4.20;;;1.70;;
42726;SDS011;28372;56.832;60.658;2024-02-15T00:48:15;4.65;;;1.33;;
42726;SDS011;28372;56.832;60.658;2024-02-15T00:50:43;4.47;;;2.03;;
42726;SDS011;28372;56.832;60.658;2024-02-15T00:53:11;5.68;;;2.17;;
42726;SDS011;28372;56.832;60.658;2024-02-15T00:55:39;4.03;;;2.10;;
42726;SDS011;28372;56.832;60.658;2024-02-15T00:58:06;3.78;;;1.75;;
42726;SDS011;28372;56.832;60.658;2024-02-15T01:00:34;4.47;;;1.70;;
42726;SDS011;28372;56.832;60.658;2024-02-15T01:03:02;3.00;;;1.40;;
42726;SDS011;28372;56.832;60.658;2024-02-15T01:05:32;3.45;;;1.50;;
42726;SDS011;28372;56.832;60.658;2024-02-15T01:08:04;4.35;;;1.60;;
42726;SDS011;28372;56.832;60.658;2024-02-15T01:10:32;3.90;;;2.40;;
42726;SDS011;28372;56.832;60.658;2024-02-15T01:13:00;4.20;;;1.98;;
42726;SDS011;28372;56.832;60.658;2024-02-15T01:15:28;5.30;;;1.98;;
42726;SDS011;28372;56.832;60.658;2024-02-15T01:17:56;4.28;;;1.83;;
42726;SDS011;28372;56.832;60.658;2024-02-15T01:20:24;3.35;;;1.80;;
42726;SDS011;28372;56.832;60.658;2024-02-15T01:22:52;3.42;;;1.48;;
42726;SDS011;28372;56.832;60.658;2024-02-15T01:25:19;2.20;;;1.48;;
42726;SDS011;28372;56.832;60.658;2024-02-15T01:27:48;5.47;;;2.00;;
42726;SDS011;28372;56.832;60.658;2024-02-15T01:30:17;3.75;;;1.83;;
42726;SDS011;28372;56.832;60.658;2024-02-15T01:32:48;5.75;;;2.10;;
42726;SDS011;28372;56.832;60.658;2024-02-15T01:35:15;5.38;;;2.20;;
42726;SDS011;28372;56.832;60.658;2024-02-15T01:37:43;3.63;;;1.58;;
42726;SDS011;28372;56.832;60.658;2024-02-15T01:40:11;5.03;;;2.00;;
42726;SDS011;28372;56.832;60.658;2024-02-15T01:42:44;3.75;;;1.70;;
42726;SDS011;28372;56.832;60.658;2024-02-15T01:45:13;6.45;;;1.95;;
42726;SDS011;28372;56.832;60.658;2024-02-15T01:47:57;4.60;;;2.00;;
42726;SDS011;28372;56.832;60.658;2024-02-15T01:50:25;5.85;;;2.40;;
42726;SDS011;28372;56.832;60.658;2024-02-15T01:52:54;3.80;;;1.90;;
42726;SDS011;28372;56.832;60.658;2024-02-15T01:55:26;4.10;;;1.80;;
42726;SDS011;28372;56.832;60.658;2024-02-15T01:57:54;4.25;;;1.90;;
42726;SDS011;28372;56.832;60.658;2024-02-15T02:00:22;4.55;;;2.28;;
42726;SDS011;28372;56.832;60.658;2024-02-15T02:02:57;5.93;;;1.83;;
42726;SDS011;28372;56.832;60.658;2024-02-15T02:05:32;3.90;;;1.73;;
42726;SDS011;28372;56.832;60.658;2024-02-15T02:08:01;4.20;;;2.13;;
42726;SDS011;28372;56.832;60.658;2024-02-15T02:10:32;4.18;;;1.92;;
42726;SDS011;28372;56.832;60.658;2024-02-15T02:13:01;3.95;;;1.80;;
42726;SDS011;28372;56.832;60.658;2024-02-15T02:15:31;3.72;;;1.70;;
42726;SDS011;28372;56.832;60.658;2024-02-15T02:18:00;4.50;;;1.80;;
42726;SDS011;28372;56.832;60.658;2024-02-15T02:20:30;4.68;;;2.08;;
42726;SDS011;28372;56.832;60.658;2024-02-15T02:23:03;3.58;;;1.60;;
42726;SDS011;28372;56.832;60.658;2024-02-15T02:25:36;4.88;;;1.80;;
42726;SDS011;28372;56.832;60.658;2024-02-15T02:28:06;5.05;;;1.85;;
42726;SDS011;28372;56.832;60.658;2024-02-15T02:30:35;6.30;;;2.08;;
42726;SDS011;28372;56.832;60.658;2024-02-15T02:33:03;4.88;;;1.75;;
42726;SDS011;28372;56.832;60.658;2024-02-15T02:35:35;4.30;;;1.95;;
42726;SDS011;28372;56.832;60.658;2024-02-15T02:38:05;3.85;;;1.83;;
42726;SDS011;28372;56.832;60.658;2024-02-15T02:40:33;3.45;;;1.92;;
42726;SDS011;28372;56.832;60.658;2024-02-15T02:43:03;4.18;;;1.67;;
42726;SDS011;28372;56.832;60.658;2024-02-15T02:45:32;4.53;;;1.67;;
42726;SDS011;28372;56.832;60.658;2024-02-15T02:48:00;4.13;;;2.10;;
42726;SDS011;28372;56.832;60.658;2024-02-15T02:50:28;2.83;;;1.55;;
42726;SDS011;28372;56.832;60.658;2024-02-15T02:52:56;5.03;;;1.80;;
42726;SDS011;28372;56.832;60.658;2024-02-15T02:55:23;3.42;;;1.63;;
42726;SDS011;28372;56.832;60.658;2024-02-15T02:57:55;5.07;;;2.20;;
42726;SDS011;28372;56.832;60.658;2024-02-15T03:00:22;7.13;;;2.60;;
42726;SDS011;28372;56.832;60.658;2024-02-15T03:02:50;5.03;;;2.47;;
42726;SDS011;28372;56.832;60.658;2024-02-15T03:05:18;5.47;;;2.30;;
42726;SDS011;28372;56.832;60.658;2024-02-15T03:07:50;4.15;;;1.98;;
42726;SDS011;28372;56.832;60.658;2024-02-15T03:10:19;4.07;;;2.05;;
42726;SDS011;28372;56.832;60.658;2024-02-15T03:12:47;3.15;;;1.67;;
42726;SDS011;28372;56.832;60.658;2024-02-15T03:15:16;5.03;;;2.67;;
42726;SDS011;28372;56.832;60.658;2024-02-15T03:17:46;5.03;;;2.35;;
42726;SDS011;28372;56.832;60.658;2024-02-15T03:20:17;6.15;;;1.90;;
42726;SDS011;28372;56.832;60.658;2024-02-15T03:25:20;5.43;;;2.30;;
42726;SDS011;28372;56.832;60.658;2024-02-15T03:27:52;5.50;;;2.10;;
42726;SDS011;28372;56.832;60.658;2024-02-15T03:30:22;2.97;;;1.13;;
42726;SDS011;28372;56.832;60.658;2024-02-15T03:32:58;4.13;;;1.92;;
42726;SDS011;28372;56.832;60.658;2024-02-15T03:35:28;5.65;;;2.30;;
42726;SDS011;28372;56.832;60.658;2024-02-15T03:37:58;4.50;;;1.60;;
42726;SDS011;28372;56.832;60.658;2024-02-15T03:40:29;4.20;;;2.08;;
42726;SDS011;28372;56.832;60.658;2024-02-15T03:42:58;6.57;;;1.88;;
42726;SDS011;28372;56.832;60.658;2024-02-15T03:45:25;3.35;;;1.90;;
42726;SDS011;28372;56.832;60.658;2024-02-15T03:47:54;3.97;;;2.00;;
42726;SDS011;28372;56.832;60.658;2024-02-15T03:50:29;4.45;;;2.00;;
42726;SDS011;28372;56.832;60.658;2024-02-15T03:53:00;3.67;;;1.40;;
42726;SDS011;28372;56.832;60.658;2024-02-15T03:55:30;4.88;;;1.65;;
42726;SDS011;28372;56.832;60.658;2024-02-15T03:58:00;4.57;;;2.20;;
42726;SDS011;28372;56.832;60.658;2024-02-15T04:00:28;4.35;;;2.40;;
42726;SDS011;28372;56.832;60.658;2024-02-15T04:02:56;4.72;;;2.00;;
42726;SDS011;28372;56.832;60.658;2024-02-15T04:05:24;6.75;;;2.67;;
42726;SDS011;28372;56.832;60.658;2024-02-15T04:07:52;7.88;;;2.47;;
42726;SDS011;28372;56.832;60.658;2024-02-15T04:10:21;6.97;;;2.30;;
42726;SDS011;28372;56.832;60.658;2024-02-15T04:13:02;6.07;;;2.83;;
42726;SDS011;28372;56.832;60.658;2024-02-15T04:15:30;7.22;;;2.85;;
42726;SDS011;28372;56.832;60.658;2024-02-15T04:17:59;8.18;;;2.75;;
42726;SDS011;28372;56.832;60.658;2024-02-15T04:20:29;7.97;;;2.67;;
42726;SDS011;28372;56.832;60.658;2024-02-15T04:22:58;6.28;;;2.58;;
42726;SDS011;28372;56.832;60.658;2024-02-15T04:25:28;6.90;;;2.80;;
42726;SDS011;28372;56.832;60.658;2024-02-15T04:28:01;9.18;;;3.50;;
42726;SDS011;28372;56.832;60.658;2024-02-15T04:30:32;6.05;;;2.75;;
42726;SDS011;28372;56.832;60.658;2024-02-15T04:33:02;6.82;;;2.70;;
42726;SDS011;28372;56.832;60.658;2024-02-15T04:35:31;6.82;;;3.17;;
42726;SDS011;28372;56.832;60.658;2024-02-15T04:38:02;5.57;;;2.60;;
42726;SDS011;28372;56.832;60.658;2024-02-15T04:40:32;6.72;;;2.53;;
42726;SDS011;28372;56.832;60.658;2024-02-15T04:43:02;4.80;;;2.03;;
42726;SDS011;28372;56.832;60.658;2024-02-15T04:45:33;7.43;;;2.53;;
42726;SDS011;28372;56.832;60.658;2024-02-15T04:48:04;4.90;;;2.13;;
42726;SDS011;28372;56.832;60.658;2024-02-15T04:50:35;7.22;;;2.40;;
42726;SDS011;28372;56.832;60.658;2024-02-15T04:53:05;3.83;;;1.80;;
42726;SDS011;28372;56.832;60.658;2024-02-15T04:55:34;8.07;;;2.53;;
42726;SDS011;28372;56.832;60.658;2024-02-15T04:58:02;7.25;;;2.17;;
42726;SDS011;28372;56.832;60.658;2024-02-15T05:00:33;4.43;;;2.17;;
42726;SDS011;28372;56.832;60.658;2024-02-15T05:03:02;6.07;;;2.13;;
42726;SDS011;28372;56.832;60.658;2024-02-15T05:05:32;6.70;;;2.55;;
42726;SDS011;28372;56.832;60.658;2024-02-15T05:08:01;6.95;;;2.25;;
42726;SDS011;28372;56.832;60.658;2024-02-15T05:10:28;4.90;;;2.20;;
42726;SDS011;28372;56.832;60.658;2024-02-15T05:12:56;7.05;;;2.33;;
42726;SDS011;28372;56.832;60.658;2024-02-15T05:15:26;7.72;;;2.53;;
42726;SDS011;28372;56.832;60.658;2024-02-15T05:17:56;5.70;;;2.45;;
42726;SDS011;28372;56.832;60.658;2024-02-15T05:20:23;6.45;;;2.70;;
42726;SDS011;28372;56.832;60.658;2024-02-15T05:22:52;5.82;;;2.53;;
42726;SDS011;28372;56.832;60.658;2024-02-15T05:25:20;7.72;;;2.60;;
42726;SDS011;28372;56.832;60.658;2024-02-15T05:30:25;6.20;;;2.47;;
42726;SDS011;28372;56.832;60.658;2024-02-15T05:32:54;5.78;;;2.78;;
42726;SDS011;28372;56.832;60.658;2024-02-15T05:35:22;6.18;;;2.50;;
42726;SDS011;28372;56.832;60.658;2024-02-15T05:37:52;5.78;;;2.47;;
42726;SDS011;28372;56.832;60.658;2024-02-15T05:40:20;6.90;;;2.88;;
42726;SDS011;28372;56.832;60.658;2024-02-15T05:42:54;7.30;;;2.78;;
42726;SDS011;28372;56.832;60.658;2024-02-15T05:48:12;7.80;;;3.17;;
42726;SDS011;28372;56.832;60.658;2024-02-15T05:50:41;6.07;;;2.50;;
42726;SDS011;28372;56.832;60.658;2024-02-15T05:53:10;6.90;;;2.90;;
42726;SDS011;28372;56.832;60.658;2024-02-15T05:55:40;5.47;;;3.08;;
42726;SDS011;28372;56.832;60.658;2024-02-15T05:58:11;7.22;;;2.90;;
42726;SDS011;28372;56.832;60.658;2024-02-15T06:00:40;5.63;;;2.90;;
42726;SDS011;28372;56.832;60.658;2024-02-15T06:03:08;5.25;;;2.55;;
42726;SDS011;28372;56.832;60.658;2024-02-15T06:05:36;5.78;;;2.78;;
42726;SDS011;28372;56.832;60.658;2024-02-15T06:08:05;7.88;;;3.03;;
42726;SDS011;28372;56.832;60.658;2024-02-15T06:10:34;5.57;;;2.92;;
42726;SDS011;28372;56.832;60.658;2024-02-15T06:13:02;6.95;;;3.10;;
42726;SDS011;28372;56.832;60.658;2024-02-15T06:15:36;7.35;;;3.17;;
42726;SDS011;28372;56.832;60.658;2024-02-15T06:18:13;9.07;;;3.00;;
42726;SDS011;28372;56.832;60.658;2024-02-15T06:20:44;5.60;;;2.80;;
42726;SDS011;28372;56.832;60.658;2024-02-15T06:23:14;5.05;;;2.60;;
42726;SDS011;28372;56.832;60.658;2024-02-15T06:25:42;5.07;;;2.83;;
42726;SDS011;28372;56.832;60.658;2024-02-15T06:28:10;5.82;;;2.83;;
42726;SDS011;28372;56.832;60.658;2024-02-15T06:30:58;6.53;;;2.92;;
42726;SDS011;28372;56.832;60.658;2024-02-15T06:33:48;6.25;;;3.08;;
42726;SDS011;28372;56.832;60.658;2024-02-15T06:36:40;4.95;;;2.67;;
42726;SDS011;28372;56.832;60.658;2024-02-15T06:39:33;5.90;;;2.60;;
42726;SDS011;28372;56.832;60.658;2024-02-15T06:42:11;5.38;;;2.58;;
42726;SDS011;28372;56.832;60.658;2024-02-15T06:44:46;5.15;;;2.50;;
42726;SDS011;28372;56.832;60.658;2024-02-15T06:47:17;7.25;;;2.70;;
42726;SDS011;28372;56.832;60.658;2024-02-15T06:49:48;5.75;;;2.85;;
42726;SDS011;28372;56.832;60.658;2024-02-15T06:52:21;5.70;;;2.88;;
42726;SDS011;28372;56.832;60.658;2024-02-15T06:54:50;6.97;;;2.67;;
42726;SDS011;28372;56.832;60.658;2024-02-15T06:57:18;5.88;;;2.78;;
42726;SDS011;28372;56.832;60.658;2024-02-15T06:59:48;6.20;;;2.58;;
42726;SDS011;28372;56.832;60.658;2024-02-15T07:02:16;6.13;;;3.00;;
42726;SDS011;28372;56.832;60.658;2024-02-15T07:04:44;7.05;;;3.10;;
42726;SDS011;28372;56.832;60.658;2024-02-15T07:07:13;6.32;;;3.00;;
42726;SDS011;28372;56.832;60.658;2024-02-15T07:09:42;5.88;;;3.20;;
42726;SDS011;28372;56.832;60.658;2024-02-15T07:12:09;6.18;;;2.97;;
42726;SDS011;28372;56.832;60.658;2024-02-15T07:14:40;6.57;;;2.63;;
42726;SDS011;28372;56.832;60.658;2024-02-15T07:17:08;5.70;;;2.72;;
42726;SDS011;28372;56.832;60.658;2024-02-15T07:19:37;5.38;;;2.85;;
42726;SDS011;28372;56.832;60.658;2024-02-15T07:22:08;5.78;;;2.50;;
42726;SDS011;28372;56.832;60.658;2024-02-15T07:24:36;5.53;;;3.10;;
42726;SDS011;28372;56.832;60.658;2024-02-15T07:27:05;5.25;;;2.60;;
42726;SDS011;28372;56.832;60.658;2024-02-15T07:29:34;4.72;;;2.60;;
42726;SDS011;28372;56.832;60.658;2024-02-15T07:32:04;5.28;;;2.35;;
42726;SDS011;28372;56.832;60.658;2024-02-15T07:34:33;5.10;;;2.58;;
42726;SDS011;28372;56.832;60.658;2024-02-15T07:37:02;5.88;;;2.85;;
42726;SDS011;28372;56.832;60.658;2024-02-15T07:39:30;5.93;;;2.90;;
42726;SDS011;28372;56.832;60.658;2024-02-15T07:44:48;7.63;;;3.22;;
42726;SDS011;28372;56.832;60.658;2024-02-15T07:47:18;6.93;;;3.60;;
42726;SDS011;28372;56.832;60.658;2024-02-15T07:49:51;6.40;;;3.03;;
42726;SDS011;28372;56.832;60.658;2024-02-15T07:52:18;5.93;;;3.50;;
42726;SDS011;28372;56.832;60.658;2024-02-15T07:54:46;5.47;;;3.00;;
42726;SDS011;28372;56.832;60.658;2024-02-15T07:57:14;6.65;;;3.30;;
42726;SDS011;28372;56.832;60.658;2024-02-15T07:59:41;7.20;;;3.38;;
42726;SDS011;28372;56.832;60.658;2024-02-15T08:02:09;6.68;;;2.83;;
42726;SDS011;28372;56.832;60.658;2024-02-15T08:04:41;6.30;;;3.15;;
42726;SDS011;28372;56.832;60.658;2024-02-15T08:07:11;7.55;;;3.55;;
42726;SDS011;28372;56.832;60.658;2024-02-15T08:09:39;6.20;;;3.03;;
42726;SDS011;28372;56.832;60.658;2024-02-15T08:12:09;6.32;;;3.03;;
42726;SDS011;28372;56.832;60.658;2024-02-15T08:14:37;6.55;;;2.90;;
42726;SDS011;28372;56.832;60.658;2024-02-15T08:17:07;8.45;;;3.38;;
42726;SDS011;28372;56.832;60.658;2024-02-15T08:19:35;6.40;;;2.70;;
42726;SDS011;28372;56.832;60.658;2024-02-15T08:22:05;6.07;;;2.72;;
42726;SDS011;28372;56.832;60.658;2024-02-15T08:24:33;5.90;;;2.65;;
42726;SDS011;28372;56.832;60.658;2024-02-15T08:27:04;6.10;;;2.80;;
42726;SDS011;28372;56.832;60.658;2024-02-15T08:29:31;6.25;;;2.95;;
42726;SDS011;28372;56.832;60.658;2024-02-15T08:32:02;5.82;;;2.47;;
42726;SDS011;28372;56.832;60.658;2024-02-15T08:34:32;5.40;;;2.60;;
42726;SDS011;28372;56.832;60.658;2024-02-15T08:37:00;4.97;;;2.50;;
42726;SDS011;28372;56.832;60.658;2024-02-15T08:39:29;5.93;;;2.38;;
42726;SDS011;28372;56.832;60.658;2024-02-15T08:41:57;5.03;;;2.35;;
42726;SDS011;28372;56.832;60.658;2024-02-15T08:44:27;5.57;;;2.30;;
42726;SDS011;28372;56.832;60.658;2024-02-15T08:46:56;4.75;;;2.20;;
42726;SDS011;28372;56.832;60.658;2024-02-15T08:49:25;4.30;;;2.30;;
42726;SDS011;28372;56.832;60.658;2024-02-15T08:51:54;5.53;;;2.50;;
42726;SDS011;28372;56.832;60.658;2024-02-15T08:54:22;5.07;;;2.42;;
42726;SDS011;28372;56.832;60.658;2024-02-15T08:56:50;3.33;;;1.75;;
42726;SDS011;28372;56.832;60.658;2024-02-15T08:59:19;4.63;;;2.28;;
42726;SDS011;28372;56.832;60.658;2024-02-15T09:01:46;3.58;;;1.73;;
42726;SDS011;28372;56.832;60.658;2024-02-15T09:04:14;5.57;;;2.20;;
42726;SDS011;28372;56.832;60.658;2024-02-15T09:06:41;4.13;;;2.17;;
42726;SDS011;28372;56.832;60.658;2024-02-15T09:09:10;4.10;;;2.10;;
42726;SDS011;28372;56.832;60.658;2024-02-15T09:11:37;4.28;;;2.08;;
42726;SDS011;28372;56.832;60.658;2024-02-15T09:14:05;5.72;;;2.50;;
42726;SDS011;28372;56.832;60.658;2024-02-15T09:16:35;4.90;;;2.10;;
42726;SDS011;28372;56.832;60.658;2024-02-15T09:19:02;5.68;;;2.30;;
42726;SDS011;28372;56.832;60.658;2024-02-15T09:21:30;4.53;;;2.08;;
42726;SDS011;28372;56.832;60.658;2024-02-15T09:23:58;4.97;;;2.17;;
42726;SDS011;28372;56.832;60.658;2024-02-15T09:26:26;3.55;;;1.95;;
42726;SDS011;28372;56.832;60.658;2024-02-15T09:28:54;5.90;;;2.38;;
42726;SDS011;28372;56.832;60.658;2024-02-15T09:31:23;5.80;;;2.50;;
42726;SDS011;28372;56.832;60.658;2024-02-15T09:33:53;5.50;;;2.28;;
42726;SDS011;28372;56.832;60.658;2024-02-15T09:36:22;4.60;;;2.10;;
42726;SDS011;28372;56.832;60.658;2024-02-15T09:38:49;4.53;;;2.10;;
42726;SDS011;28372;56.832;60.658;2024-02-15T09:41:17;5.57;;;1.95;;
42726;SDS011;28372;56.832;60.658;2024-02-15T09:43:45;4.53;;;1.90;;
42726;SDS011;28372;56.832;60.658;2024-02-15T09:46:13;5.40;;;2.00;;
42726;SDS011;28372;56.832;60.658;2024-02-15T09:48:41;7.50;;;2.63;;
42726;SDS011;28372;56.832;60.658;2024-02-15T09:51:18;5.07;;;2.40;;
42726;SDS011;28372;56.832;60.658;2024-02-15T09:53:48;4.90;;;2.03;;
42726;SDS011;28372;56.832;60.658;2024-02-15T09:56:16;3.88;;;1.70;;
42726;SDS011;28372;56.832;60.658;2024-02-15T09:58:45;6.10;;;2.00;;
42726;SDS011;28372;56.832;60.658;2024-02-15T10:01:14;5.13;;;2.03;;
42726;SDS011;28372;56.832;60.658;2024-02-15T10:03:46;5.05;;;2.53;;
42726;SDS011;28372;56.832;60.658;2024-02-15T10:06:20;6.88;;;2.30;;
42726;SDS011;28372;56.832;60.658;2024-02-15T10:08:47;5.88;;;2.40;;
42726;SDS011;28372;56.832;60.658;2024-02-15T10:11:15;5.60;;;2.40;;
42726;SDS011;28372;56.832;60.658;2024-02-15T10:13:43;4.05;;;2.10;;
42726;SDS011;28372;56.832;60.658;2024-02-15T10:16:17;4.28;;;1.65;;
42726;SDS011;28372;56.832;60.658;2024-02-15T10:18:47;2.30;;;1.30;;
42726;SDS011;28372;56.832;60.658;2024-02-15T10:21:27;3.45;;;1.25;;
42726;SDS011;28372;56.832;60.658;2024-02-15T10:24:06;3.00;;;1.48;;
42726;SDS011;28372;56.832;60.658;2024-02-15T10:26:36;4.88;;;1.92;;
42726;SDS011;28372;56.832;60.658;2024-02-15T10:29:05;4.13;;;1.63;;
42726;SDS011;28372;56.832;60.658;2024-02-15T10:31:39;5.35;;;2.00;;
42726;SDS011;28372;56.832;60.658;2024-02-15T10:34:18;5.15;;;2.10;;
42726;SDS011;28372;56.832;60.658;2024-02-15T10:36:48;4.32;;;1.90;;
42726;SDS011;28372;56.832;60.658;2024-02-15T10:39:17;5.50;;;2.35;;
42726;SDS011;28372;56.832;60.658;2024-02-15T10:41:47;5.43;;;1.70;;
42726;SDS011;28372;56.832;60.658;2024-02-15T10:44:21;4.05;;;1.63;;
42726;SDS011;28372;56.832;60.658;2024-02-15T10:46:51;4.30;;;2.15;;
42726;SDS011;28372;56.832;60.658;2024-02-15T10:49:23;4.57;;;1.85;;
42726;SDS011;28372;56.832;60.658;2024-02-15T10:51:59;5.20;;;1.80;;
42726;SDS011;28372;56.832;60.658;2024-02-15T10:57:32;3.30;;;1.70;;
42726;SDS011;28372;56.832;60.658;2024-02-15T11:00:04;3.70;;;1.63;;
42726;SDS011;28372;56.832;60.658;2024-02-15T11:02:39;4.32;;;1.80;;
42726;SDS011;28372;56.832;60.658;2024-02-15T11:05:16;5.38;;;2.03;;
42726;SDS011;28372;56.832;60.658;2024-02-15T11:07:48;4.07;;;1.42;;
42726;SDS011;28372;56.832;60.658;2024-02-15T11:10:16;5.32;;;2.00;;
42726;SDS011;28372;56.832;60.658;2024-02-15T11:12:44;4.03;;;1.60;;
42726;SDS011;28372;56.832;60.658;2024-02-15T11:16:02;4.72;;;2.00;;
42726;SDS011;28372;56.832;60.658;2024-02-15T11:18:08;3.72;;;1.50;;
42726;SDS011;28372;56.832;60.658;2024-02-15T11:23:05;4.68;;;2.00;;
42726;SDS011;28372;56.832;60.658;2024-02-15T11:25:39;4.60;;;1.83;;
42726;SDS011;28372;56.832;60.658;2024-02-15T11:30:49;6.03;;;2.00;;
42726;SDS011;28372;56.832;60.658;2024-02-15T11:38:32;3.67;;;1.67;;
42726;SDS011;28372;56.832;60.658;2024-02-15T11:41:01;3.78;;;1.60;;
42726;SDS011;28372;56.832;60.658;2024-02-15T11:46:14;4.63;;;1.80;;
42726;SDS011;28372;56.832;60.658;2024-02-15T11:48:48;3.83;;;1.73;;
42726;SDS011;28372;56.832;60.658;2024-02-15T11:51:33;3.03;;;1.42;;
42726;SDS011;28372;56.832;60.658;2024-02-15T11:54:10;2.88;;;1.35;;
42726;SDS011;28372;56.832;60.658;2024-02-15T11:56:55;4.20;;;1.70;;
42726;SDS011;28372;56.832;60.658;2024-02-15T11:59:41;3.75;;;1.60;;
42726;SDS011;28372;56.832;60.658;2024-02-15T12:02:31;3.45;;;1.45;;
42726;SDS011;28372;56.832;60.658;2024-02-15T12:05:18;5.03;;;1.70;;
42726;SDS011;28372;56.832;60.658;2024-02-15T12:08:04;4.55;;;1.65;;
42726;SDS011;28372;56.832;60.658;2024-02-15T12:10:57;4.68;;;1.80;;
42726;SDS011;28372;56.832;60.658;2024-02-15T12:13:50;3.65;;;1.60;;
42726;SDS011;28372;56.832;60.658;2024-02-15T12:16:37;3.20;;;1.63;;
42726;SDS011;28372;56.832;60.658;2024-02-15T12:19:23;4.07;;;1.83;;
42726;SDS011;28372;56.832;60.658;2024-02-15T12:21:51;3.95;;;1.85;;
42726;SDS011;28372;56.832;60.658;2024-02-15T12:24:20;3.90;;;1.80;;
42726;SDS011;28372;56.832;60.658;2024-02-15T12:26:59;6.57;;;2.00;;
42726;SDS011;28372;56.832;60.658;2024-02-15T12:29:29;5.10;;;1.85;;
42726;SDS011;28372;56.832;60.658;2024-02-15T12:31:57;4.78;;;1.90;;
42726;SDS011;28372;56.832;60.658;2024-02-15T12:34:25;5.25;;;2.10;;
42726;SDS011;28372;56.832;60.658;2024-02-15T12:37:05;6.85;;;2.10;;
42726;SDS011;28372;56.832;60.658;2024-02-15T12:39:36;5.30;;;2.10;;
42726;SDS011;28372;56.832;60.658;2024-02-15T12:42:06;4.80;;;1.85;;
42726;SDS011;28372;56.832;60.658;2024-02-15T12:44:36;4.72;;;1.67;;
42726;SDS011;28372;56.832;60.658;2024-02-15T12:47:17;4.63;;;2.00;;
42726;SDS011;28372;56.832;60.658;2024-02-15T12:49:46;5.15;;;1.90;;
42726;SDS011;28372;56.832;60.658;2024-02-15T12:55:10;6.13;;;1.85;;
42726;SDS011;28372;56.832;60.658;2024-02-15T12:57:44;6.15;;;1.98;;
42726;SDS011;28372;56.832;60.658;2024-02-15T13:00:19;6.75;;;2.10;;
42726;SDS011;28372;56.832;60.658;2024-02-15T13:02:56;4.43;;;2.40;;
42726;SDS011;28372;56.832;60.658;2024-02-15T13:05:25;5.50;;;2.17;;
42726;SDS011;28372;56.832;60.658;2024-02-15T13:07:54;8.63;;;2.90;;
42726;SDS011;28372;56.832;60.658;2024-02-15T13:10:22;8.65;;;2.72;;
42726;SDS011;28372;56.832;60.658;2024-02-15T13:12:54;7.38;;;2.42;;
42726;SDS011;28372;56.832;60.658;2024-02-15T13:15:24;8.85;;;2.53;;
42726;SDS011;28372;56.832;60.658;2024-02-15T13:18:00;9.50;;;2.65;;
42726;SDS011;28372;56.832;60.658;2024-02-15T13:20:32;8.80;;;2.35;;
42726;SDS011;28372;56.832;60.658;2024-02-15T13:23:02;9.15;;;2.78;;
42726;SDS011;28372;56.832;60.658;2024-02-15T13:25:57;10.80;;;3.28;;
42726;SDS011;28372;56.832;60.658;2024-02-15T13:28:29;12.95;;;3.80;;
42726;SDS011;28372;56.832;60.658;2024-02-15T13:30:57;10.18;;;3.55;;
42726;SDS011;28372;56.832;60.658;2024-02-15T13:33:26;9.95;;;3.13;;
42726;SDS011;28372;56.832;60.658;2024-02-15T13:35:59;11.23;;;3.75;;
42726;SDS011;28372;56.832;60.658;2024-02-15T13:38:26;10.95;;;3.25;;
42726;SDS011;28372;56.832;60.658;2024-02-15T13:40:55;10.07;;;3.10;;
42726;SDS011;28372;56.832;60.658;2024-02-15T13:43:24;10.98;;;3.53;;
42726;SDS011;28372;56.832;60.658;2024-02-15T13:45:51;11.32;;;4.65;;
42726;SDS011;28372;56.832;60.658;2024-02-15T13:48:19;10.82;;;3.80;;
42726;SDS011;28372;56.832;60.658;2024-02-15T13:50:50;13.90;;;4.47;;
42726;SDS011;28372;56.832;60.658;2024-02-15T13:53:20;10.43;;;3.50;;
42726;SDS011;28372;56.832;60.658;2024-02-15T13:55:51;10.57;;;3.95;;
42726;SDS011;28372;56.832;60.658;2024-02-15T13:58:19;9.70;;;3.63;;
42726;SDS011;28372;56.832;60.658;2024-02-15T14:00:47;10.25;;;4.15;;
42726;SDS011;28372;56.832;60.658;2024-02-15T14:03:15;9.45;;;3.10;;
42726;SDS011;28372;56.832;60.658;2024-02-15T14:05:45;12.20;;;3.67;;
42726;SDS011;28372;56.832;60.658;2024-02-15T14:08:15;11.30;;;3.45;;
42726;SDS011;28372;56.832;60.658;2024-02-15T14:10:42;10.60;;;4.20;;
42726;SDS011;28372;56.832;60.658;2024-02-15T14:13:10;11.90;;;3.17;;
42726;SDS011;28372;56.832;60.658;2024-02-15T14:15:41;9.40;;;3.53;;
42726;SDS011;28372;56.832;60.658;2024-02-15T14:18:11;8.65;;;3.47;;
42726;SDS011;28372;56.832;60.658;2024-02-15T14:20:46;7.10;;;3.00;;
42726;SDS011;28372;56.832;60.658;2024-02-15T14:23:16;8.55;;;3.60;;
42726;SDS011;28372;56.832;60.658;2024-02-15T14:25:45;10.38;;;3.50;;
42726;SDS011;28372;56.832;60.658;2024-02-15T14:28:13;8.93;;;3.40;;
42726;SDS011;28372;56.832;60.658;2024-02-15T14:30:42;10.73;;;3.50;;
42726;SDS011;28372;56.832;60.658;2024-02-15T14:33:28;8.75;;;3.58;;
42726;SDS011;28372;56.832;60.658;2024-02-15T14:36:00;13.25;;;5.10;;
42726;SDS011;28372;56.832;60.658;2024-02-15T14:38:28;11.15;;;3.20;;
42726;SDS011;28372;56.832;60.658;2024-02-15T14:40:56;9.70;;;3.45;;
42726;SDS011;28372;56.832;60.658;2024-02-15T14:43:27;9.68;;;3.00;;
42726;SDS011;28372;56.832;60.658;2024-02-15T14:45:56;7.55;;;2.90;;
42726;SDS011;28372;56.832;60.658;2024-02-15T14:48:25;10.73;;;3.17;;
42726;SDS011;28372;56.832;60.658;2024-02-15T14:50:58;7.38;;;3.05;;
42726;SDS011;28372;56.832;60.658;2024-02-15T14:53:26;8.10;;;3.10;;
42726;SDS011;28372;56.832;60.658;2024-02-15T14:55:56;7.65;;;2.95;;
42726;SDS011;28372;56.832;60.658;2024-02-15T14:58:24;12.45;;;4.13;;
42726;SDS011;28372;56.832;60.658;2024-02-15T15:00:55;10.00;;;3.30;;
42726;SDS011;28372;56.832;60.658;2024-02-15T15:03:30;9.20;;;3.30;;
42726;SDS011;28372;56.832;60.658;2024-02-15T15:06:06;8.25;;;3.00;;
42726;SDS011;28372;56.832;60.658;2024-02-15T15:08:54;10.90;;;3.50;;
42726;SDS011;28372;56.832;60.658;2024-02-15T15:11:42;8.43;;;3.05;;
42726;SDS011;28372;56.832;60.658;2024-02-15T15:14:28;8.90;;;3.50;;
42726;SDS011;28372;56.832;60.658;2024-02-15T15:16:56;9.82;;;3.55;;
42726;SDS011;28372;56.832;60.658;2024-02-15T15:19:24;11.40;;;3.83;;
42726;SDS011;28372;56.832;60.658;2024-02-15T15:21:52;10.38;;;3.25;;
42726;SDS011;28372;56.832;60.658;2024-02-15T15:24:20;11.65;;;4.00;;